Time;durP1;ratioP1;P1;durP2;ratioP2;P2;SDS_P1;SDS_P2;PMS_P1;PMS_P2;Temp;Humidity;BMP_temperature;BMP_pressure;BME280_temperature;BME280_humidity;BME280_pressure;Samples;Min_cycle;Max_cycle;Signal;HPM_P1;HPM_P2
2021/06/05 00:00:32;;;;;;;8.83;4.10;;;;;;;13.55;100.00;100140.72;1496636;96;21127;-79
2021/06/05 00:03:00;;;;;;;8.85;4.12;;;;;;;13.55;100.00;100133.40;1518445;94;21068;-79
2021/06/05 00:05:28;;;;;;;11.45;4.15;;;;;;;13.54;100.00;100134.94;1526946;94;21054;-78
2021/06/05 00:07:55;;;;;;;12.30;3.87;;;;;;;13.54;100.00;100134.41;1526595;94;21192;-78
2021/06/05 00:10:33;;;;;;;8.95;3.95;;;;;;;13.53;100.00;100132.75;1527015;94;21574;-78
2021/06/05 00:13:00;;;;;;;11.18;3.92;;;;;;;13.51;100.00;100129.38;1526839;94;21605;-79
2021/06/05 00:15:33;;;;;;;6.92;3.40;;;;;;;13.50;100.00;100129.05;1561979;91;21107;-77
2021/06/05 00:18:02;;;;;;;8.53;3.87;;;;;;;13.49;100.00;100125.98;1535697;92;21091;-77
2021/06/05 00:20:30;;;;;;;7.78;4.05;;;;;;;13.49;100.00;100125.98;1535244;93;21068;-77
2021/06/05 00:22:58;;;;;;;9.95;4.28;;;;;;;13.48;100.00;100127.03;1535232;93;21124;-77
2021/06/05 00:25:25;;;;;;;7.35;3.67;;;;;;;13.48;100.00;100120.24;1535288;93;21159;-75
2021/06/05 00:27:52;;;;;;;6.10;3.60;;;;;;;13.46;100.00;100120.42;1538534;92;21080;-79
2021/06/05 00:30:19;;;;;;;10.20;3.70;;;;;;;13.47;100.00;100123.48;1539807;93;21026;-79
2021/06/05 00:32:46;;;;;;;8.95;3.98;;;;;;;13.47;100.00;100118.55;1540146;93;21092;-76
2021/06/05 00:35:13;;;;;;;14.10;4.55;;;;;;;13.46;100.00;100117.71;1540073;93;21093;-77
2021/06/05 00:37:41;;;;;;;13.50;4.33;;;;;;;13.45;100.00;100119.25;1539727;92;21077;-77
2021/06/05 00:40:10;;;;;;;7.37;3.92;;;;;;;13.44;100.00;100117.59;1539933;93;21025;-77
2021/06/05 00:42:37;;;;;;;10.58;4.22;;;;;;;13.42;100.00;100114.19;1595914;88;21103;-78
2021/06/05 00:45:07;;;;;;;9.23;4.00;;;;;;;13.41;100.00;100121.50;1629431;88;21054;-77
2021/06/05 00:47:34;;;;;;;9.45;4.05;;;;;;;13.41;100.00;100112.00;1590424;89;21057;-78
2021/06/05 00:50:04;;;;;;;9.73;3.90;;;;;;;13.41;100.00;100110.64;1629769;87;21473;-78
2021/06/05 00:52:32;;;;;;;10.10;3.95;;;;;;;13.40;100.00;100113.54;1616424;89;21042;-79
2021/06/05 00:54:59;;;;;;;12.78;3.55;;;;;;;13.39;100.00;100104.56;1630166;87;21535;-78
2021/06/05 00:57:26;;;;;;;6.37;3.45;;;;;;;13.40;100.00;100105.39;1606521;88;21543;-79
2021/06/05 00:59:53;;;;;;;10.63;3.77;;;;;;;13.39;100.00;100101.84;1630164;87;21066;-76
2021/06/05 01:02:20;;;;;;;9.25;4.05;;;;;;;13.39;100.00;100097.77;1629552;88;21023;-78
2021/06/05 01:04:48;;;;;;;9.63;3.92;;;;;;;13.38;100.00;100102.86;1629548;88;21095;-78
2021/06/05 01:07:21;;;;;;;7.42;3.65;;;;;;;13.37;100.00;100103.05;1590556;89;21105;-78
2021/06/05 01:10:00;;;;;;;12.80;4.05;;;;;;;13.35;100.00;100095.11;1630362;87;21050;-79
2021/06/05 01:13:02;;;;;;;6.05;3.47;;;;;;;13.34;100.00;100096.12;1626491;88;21034;-79
2021/06/05 01:15:42;;;;;;;5.78;3.70;;;;;;;13.33;100.00;100094.42;1612789;89;21091;-77
2021/06/05 01:18:17;;;;;;;7.83;3.90;;;;;;;13.33;100.00;100096.31;1613363;89;21084;-78
2021/06/05 01:21:26;;;;;;;9.83;3.87;;;;;;;13.30;100.00;100095.63;1555275;92;21224;-78
2021/06/05 01:24:20;;;;;;;12.50;4.05;;;;;;;13.30;100.00;100090.20;1521148;94;21109;-78
2021/06/05 01:26:51;;;;;;;;;;;;;;;13.31;100.00;100097.85;1488970;96;21184;-79
2021/06/05 01:29:23;;;;;;;8.33;3.83;;;;;;;13.30;100.00;100097.52;1477810;97;20134;-77
2021/06/05 01:31:53;;;;;;;8.63;4.40;;;;;;;13.28;100.00;100094.98;1413646;99;21169;-77
2021/06/05 01:34:24;;;;;;;9.30;4.10;;;;;;;13.27;100.00;100098.71;1385901;104;21162;-78
2021/06/05 01:36:54;;;;;;;7.70;3.75;;;;;;;13.25;100.00;100097.23;1419237;101;21696;-77
2021/06/05 01:39:26;;;;;;;9.08;3.98;;;;;;;13.25;100.00;100098.58;1419198;101;21127;-78
2021/06/05 01:41:54;;;;;;;5.95;3.77;;;;;;;13.25;100.00;100095.88;1419501;101;21138;-77
2021/06/05 01:44:24;;;;;;;7.60;3.47;;;;;;;13.25;100.00;100089.08;1419149;101;21148;-79
2021/06/05 01:46:51;;;;;;;6.25;3.72;;;;;;;13.24;100.00;100094.17;1419158;101;21124;-79
2021/06/05 01:49:20;;;;;;;10.95;4.17;;;;;;;13.25;100.00;100099.94;1413708;102;21197;-78
2021/06/05 01:51:52;;;;;;;9.05;3.83;;;;;;;13.23;100.00;100093.34;1386342;102;21201;-78
2021/06/05 01:54:30;;;;;;;5.17;3.72;;;;;;;13.24;100.00;100096.89;1330799;108;21238;-78
2021/06/05 01:57:00;;;;;;;9.00;3.80;;;;;;;13.23;100.00;100093.34;1365174;105;21124;-78
2021/06/05 01:59:30;;;;;;;7.03;3.33;;;;;;;13.24;100.00;100092.81;1349482;106;21173;-78
2021/06/05 02:01:59;;;;;;;9.80;4.08;;;;;;;13.25;100.00;100089.08;1365002;105;21107;-79
2021/06/05 02:04:26;;;;;;;9.28;3.62;;;;;;;13.25;100.00;100089.08;1348016;105;21146;-79
2021/06/05 02:06:55;;;;;;;7.15;3.58;;;;;;;13.24;100.00;100088.73;1350654;105;21618;-79
2021/06/05 02:09:24;;;;;;;6.67;3.22;;;;;;;13.24;100.00;100089.61;1353408;104;21199;-78
2021/06/05 02:12:04;;;;;;;9.80;3.87;;;;;;;13.24;100.00;100092.32;1331894;108;21165;-78
2021/06/05 02:14:39;;;;;;;7.10;3.80;;;;;;;13.26;100.00;100097.53;1354561;106;21619;-79
2021/06/05 02:17:08;;;;;;;9.90;3.70;;;;;;;13.26;100.00;100097.05;1367036;103;21157;-78
2021/06/05 02:19:40;;;;;;;5.60;3.70;;;;;;;13.25;100.00;100086.36;1384614;104;21553;-78
2021/06/05 02:22:13;;;;;;;8.00;3.62;;;;;;;13.26;100.00;100088.90;1372185;105;21150;-79
2021/06/05 02:24:45;;;;;;;5.27;3.23;;;;;;;13.27;100.00;100094.64;1391816;103;21090;-77
2021/06/05 02:27:15;;;;;;;7.42;3.42;;;;;;;13.27;100.00;100090.56;1350732;106;22558;-78
2021/06/05 02:29:44;;;;;;;6.97;3.70;;;;;;;13.27;100.00;100088.37;1382987;102;21121;-79
2021/06/05 02:32:15;;;;;;;11.25;3.77;;;;;;;13.25;100.00;100084.48;1385173;104;21628;-79
2021/06/05 02:34:42;;;;;;;9.30;3.90;;;;;;;13.22;100.00;100082.13;1385164;104;21147;-79
2021/06/05 02:37:13;;;;;;;11.53;3.90;;;;;;;13.19;100.00;100089.81;1384996;104;21140;-78
2021/06/05 02:39:42;;;;;;;12.63;4.05;;;;;;;13.15;100.00;100093.41;1384980;104;21132;-78
2021/06/05 02:42:17;;;;;;;8.50;3.90;;;;;;;13.13;100.00;100090.05;1384990;104;21170;-79
2021/06/05 02:44:48;;;;;;;8.05;3.90;;;;;;;13.10;100.00;100089.92;1369696;104;21109;-78
2021/06/05 02:47:15;;;;;;;14.78;3.67;;;;;;;13.06;100.00;100089.95;1384999;104;22417;-78
2021/06/05 02:49:42;;;;;;;8.50;3.83;;;;;;;13.05;100.00;100090.12;1385030;104;21579;-79
2021/06/05 02:52:29;;;;;;;7.97;4.22;;;;;;;13.01;100.00;100093.73;1384975;102;21226;-79
2021/06/05 02:55:07;;;;;;;7.05;4.03;;;;;;;12.98;100.00;100090.55;1384950;104;21640;-79
2021/06/05 02:57:34;;;;;;;10.72;3.83;;;;;;;12.95;100.00;100093.66;1398376;102;21125;-79
2021/06/05 03:00:05;;;;;;;7.45;3.60;;;;;;;12.95;100.00;100093.66;1440490;99;21182;-79
2021/06/05 03:02:32;;;;;;;9.93;4.37;;;;;;;12.93;100.00;100093.83;1470049;97;21123;-78
2021/06/05 03:05:01;;;;;;;8.78;4.10;;;;;;;12.94;100.00;100100.09;1469921;96;21614;-78
2021/06/05 03:07:28;;;;;;;10.40;3.58;;;;;;;12.96;100.00;100092.61;1469804;98;21134;-79
2021/06/05 03:09:56;;;;;;;7.28;3.52;;;;;;;12.99;100.00;100092.24;1467540;98;21091;-79
2021/06/05 03:12:24;;;;;;;7.37;4.00;;;;;;;13.03;100.00;100091.70;1449275;99;21096;-77
2021/06/05 03:14:55;;;;;;;7.40;3.40;;;;;;;13.10;100.00;100091.28;1468643;97;21132;-78
2021/06/05 03:17:22;;;;;;;10.70;3.92;;;;;;;13.19;100.00;100092.53;1461720;98;21527;-78
2021/06/05 03:19:50;;;;;;;9.33;3.70;;;;;;;13.28;100.00;100091.43;1492624;96;21157;-79
2021/06/05 03:22:18;;;;;;;8.23;3.58;;;;;;;13.37;100.00;100097.61;1466688;98;21134;-78
2021/06/05 03:24:47;;;;;;;8.78;3.70;;;;;;;13.46;100.00;100101.41;1523761;92;21081;-79
2021/06/05 03:27:17;;;;;;;8.33;3.77;;;;;;;13.57;100.00;100100.09;1640103;86;21079;-77
2021/06/05 03:29:45;;;;;;;8.05;3.95;;;;;;;13.68;100.00;100100.12;1660164;86;21141;-79
2021/06/05 03:32:14;;;;;;;6.33;3.98;;;;;;;13.78;100.00;100093.88;1660354;86;21038;-78
2021/06/05 03:34:42;;;;;;;9.30;4.20;;;;;;;13.91;100.00;100097.78;1660435;86;21038;-79
2021/06/05 03:37:09;;;;;;;7.80;4.08;;;;;;;14.03;100.00;100088.09;1660347;86;21090;-78
2021/06/05 03:39:38;;;;;;;10.03;4.20;;;;;;;14.13;100.00;100086.41;1660022;86;21071;-79
2021/06/05 03:42:08;;;;;;;9.85;4.20;;;;;;;14.23;100.00;100086.41;1660221;86;21142;-78
2021/06/05 03:44:36;;;;;;;9.93;5.05;;;;;;;14.33;100.00;100079.83;1660131;86;21130;-79
2021/06/05 03:47:04;;;;;;;8.85;3.92;;;;;;;14.40;100.00;100078.01;1660159;86;21044;-78
2021/06/05 03:49:34;;;;;;;7.85;4.45;;;;;;;14.49;100.00;100078.72;1659951;86;21058;-77
2021/06/05 03:52:03;;;;;;;9.95;5.03;;;;;;;14.57;100.00;100078.06;1667949;86;21540;-78
2021/06/05 03:54:30;;;;;;;8.88;5.08;;;;;;;14.64;100.00;100071.32;1674163;86;21078;-77
2021/06/05 03:56:58;;;;;;;12.13;4.97;;;;;;;14.72;100.00;100066.27;1673922;86;21100;-78
2021/06/05 03:59:25;;;;;;;10.80;4.72;;;;;;;14.78;100.00;100059.53;1717235;82;21031;-80
2021/06/05 04:01:52;;;;;;;13.10;5.50;;;;;;;14.86;100.00;100057.69;1754265;82;20995;-79
2021/06/05 04:04:20;;;;;;;15.05;6.30;;;;;;;14.92;100.00;100062.33;1754539;82;21050;-78
2021/06/05 04:06:46;;;;;;;12.03;5.75;;;;;;;14.94;100.00;100057.02;1754323;82;21058;-79
2021/06/05 04:09:13;;;;;;;8.38;4.62;;;;;;;14.97;100.00;100056.59;1754364;82;21014;-78
2021/06/05 04:11:42;;;;;;;9.68;4.47;;;;;;;15.03;100.00;100067.20;1692222;85;21034;-79
2021/06/05 04:14:10;;;;;;;11.83;4.80;;;;;;;15.06;100.00;100057.81;1713821;84;20987;-79
2021/06/05 04:16:38;;;;;;;9.88;4.08;;;;;;;15.08;100.00;100060.64;1689271;84;21033;-79
2021/06/05 04:19:06;;;;;;;9.30;4.10;;;;;;;15.11;100.00;100060.25;1680047;85;21042;-78
2021/06/05 04:21:33;;;;;;;7.80;3.90;;;;;;;15.15;100.00;100060.69;1680216;85;21054;-79
2021/06/05 04:23:59;;;;;;;10.10;3.92;;;;;;;15.22;100.00;100063.46;1680238;85;21082;-80
2021/06/05 04:26:26;;;;;;;12.58;4.40;;;;;;;15.26;100.00;100062.01;1680309;85;21038;-80
2021/06/05 04:28:53;;;;;;;9.33;3.90;;;;;;;15.32;100.00;100062.58;1680538;85;21042;-79
2021/06/05 04:31:20;;;;;;;9.35;4.22;;;;;;;15.35;100.00;100057.56;1680540;85;21551;-80
2021/06/05 04:33:46;;;;;;;13.38;4.70;;;;;;;15.39;100.00;100056.64;1680456;85;21053;-78
2021/06/05 04:36:14;;;;;;;7.87;4.12;;;;;;;15.45;100.00;100050.37;1680404;85;21045;-79
2021/06/05 04:38:43;;;;;;;10.00;4.35;;;;;;;15.56;100.00;100053.89;1680935;85;21093;-80
2021/06/05 04:41:12;;;;;;;11.60;4.22;;;;;;;15.71;100.00;100055.62;1681049;85;21057;-78
2021/06/05 04:43:39;;;;;;;11.90;4.55;;;;;;;15.85;100.00;100051.92;1681085;85;21058;-79
2021/06/05 04:46:12;;;;;;;8.38;4.40;;;;;;;15.94;100.00;100045.76;1680916;85;21524;-79
2021/06/05 04:48:40;;;;;;;13.25;4.80;;;;;;;16.08;100.00;100041.17;1680905;85;21081;-78
2021/06/05 04:51:07;;;;;;;9.93;4.72;;;;;;;16.32;100.00;100036.98;1680862;85;21077;-78
2021/06/05 04:53:34;;;;;;;8.60;4.70;;;;;;;16.54;100.00;100039.51;1681151;85;21014;-78
2021/06/05 04:56:01;;;;;;;10.75;4.45;;;;;;;16.76;100.00;100030.05;1681456;85;21054;-80
2021/06/05 04:58:28;;;;;;;9.10;4.42;;;;;;;17.03;100.00;100023.20;1681266;85;20982;-78
2021/06/05 05:00:56;;;;;;;9.43;4.37;;;;;;;17.18;100.00;100018.88;1681278;85;21057;-78
2021/06/05 05:03:26;;;;;;;10.28;4.60;;;;;;;17.30;100.00;100011.69;1681657;85;21030;-78
2021/06/05 05:05:56;;;;;;;9.75;4.20;;;;;;;17.43;100.00;100006.16;1682806;85;21034;-78
2021/06/05 05:08:23;;;;;;;6.22;3.92;;;;;;;17.57;100.00;100000.11;1681890;85;21061;-78
2021/06/05 05:10:51;;;;;;;6.90;3.80;;;;;;;17.83;100.00;100003.22;1680097;85;21019;-74
2021/06/05 05:13:30;;;;;;;9.30;4.22;;;;;;;18.11;100.00;99999.27;1679772;85;21026;-75
2021/06/05 05:15:58;;;;;;;9.30;4.95;;;;;;;18.36;100.00;99990.23;1685391;84;21001;-74
2021/06/05 05:18:26;;;;;;;11.05;4.20;;;;;;;18.53;100.00;99991.35;1708715;84;21102;-75
2021/06/05 05:20:56;;;;;;;15.03;7.83;;;;;;;18.73;100.00;99986.22;1708891;84;21041;-74
2021/06/05 05:23:25;;;;;;;12.93;6.50;;;;;;;18.94;100.00;99987.72;1709136;84;21044;-74
2021/06/05 05:25:54;;;;;;;7.65;5.00;;;;;;;19.13;100.00;99985.83;1710585;83;21121;-75
2021/06/05 05:28:21;;;;;;;15.50;6.95;;;;;;;19.40;100.00;99986.33;1721629;83;21077;-76
2021/06/05 05:30:52;;;;;;;69.85;57.50;;;;;;;19.59;100.00;99980.29;1721619;83;21508;-69
2021/06/05 05:33:21;;;;;;;29.10;18.57;;;;;;;19.71;100.00;99990.77;1721389;83;21074;-73
2021/06/05 05:35:50;;;;;;;11.05;5.40;;;;;;;19.85;100.00;99983.77;1721518;83;21034;-75
2021/06/05 05:38:17;;;;;;;26.50;10.72;;;;;;;19.79;100.00;99981.41;1721317;83;21038;-73
2021/06/05 05:40:47;;;;;;;10.60;4.50;;;;;;;19.72;100.00;99976.00;1721268;83;21066;-75
2021/06/05 05:43:15;;;;;;;11.53;4.40;;;;;;;19.64;100.00;99990.03;1720673;83;21051;-74
2021/06/05 05:45:42;;;;;;;7.95;3.75;;;;;;;19.66;100.00;99985.14;1694736;83;21080;-73
2021/06/05 05:48:11;;;;;;;6.97;3.90;;;;;;;19.65;100.00;99985.37;1720829;83;21066;-75
2021/06/05 05:50:40;;;;;;;8.50;4.30;;;;;;;19.53;100.00;99979.86;1720842;83;21539;-76
2021/06/05 05:53:08;;;;;;;6.75;3.75;;;;;;;19.48;100.00;99972.86;1720359;83;21051;-75
2021/06/05 05:55:35;;;;;;;9.15;4.08;;;;;;;19.56;100.00;99975.26;1710803;83;21516;-75
2021/06/05 05:58:12;;;;;;;9.70;3.92;;;;;;;19.51;100.00;99966.89;1691056;83;21044;-75
2021/06/05 06:00:41;;;;;;;11.93;4.08;;;;;;;19.40;100.00;99968.51;1653155;86;21112;-73
2021/06/05 06:03:08;;;;;;;9.70;4.55;;;;;;;19.33;100.00;99967.76;1653480;87;21491;-73
2021/06/05 06:05:35;;;;;;;12.65;5.00;;;;;;;19.26;100.00;99959.61;1653479;87;21008;-74
2021/06/05 06:08:04;;;;;;;19.17;10.08;;;;;;;19.29;100.00;99959.70;1653472;87;21093;-74
2021/06/05 06:10:32;;;;;;;17.37;9.30;;;;;;;19.33;100.00;99961.73;1621813;88;21182;-73
2021/06/05 06:12:58;;;;;;;10.10;4.45;;;;;;;19.47;100.00;99956.92;1653648;87;21013;-74
2021/06/05 06:15:28;;;;;;;108.05;95.17;;;;;;;19.58;100.00;99947.61;1653810;87;21479;-78
2021/06/05 06:17:59;;;;;;;15.03;5.75;;;;;;;19.63;100.00;99948.58;1649950;87;21046;-72
2021/06/05 06:20:34;;;;;;;8.08;3.50;;;;;;;19.69;100.00;99944.09;1605411;89;21027;-74
2021/06/05 06:23:01;;;;;;;6.95;3.27;;;;;;;19.71;100.00;99950.17;1620501;88;21565;-74
2021/06/05 06:25:31;;;;;;;7.60;3.52;;;;;;;19.66;100.00;99947.29;1624596;88;21007;-75
2021/06/05 06:27:58;;;;;;;10.03;3.60;;;;;;;19.72;100.00;99940.34;1629122;88;21033;-75
2021/06/05 06:30:30;;;;;;;5.92;3.37;;;;;;;19.89;100.00;99946.55;1631893;88;21015;-76
2021/06/05 06:32:57;;;;;;;;;;;;;;;20.13;100.00;99943.84;1646050;87;21091;-75
2021/06/05 06:35:26;;;;;;;8.53;3.12;;;;;;;20.34;100.00;99936.41;1658722;86;20105;-74
2021/06/05 06:37:53;;;;;;;17.85;11.22;;;;;;;20.57;100.00;99939.69;1662091;86;21517;-73
2021/06/05 06:40:22;;;;;;;10.28;5.17;;;;;;;20.69;100.00;99937.52;1662534;86;21054;-74
2021/06/05 06:42:49;;;;;;;13.43;6.50;;;;;;;20.80;100.00;99938.03;1661635;86;21102;-75
2021/06/05 06:45:16;;;;;;;9.43;4.72;;;;;;;20.95;100.00;99934.80;1662415;86;21046;-75
2021/06/05 06:47:43;;;;;;;6.25;3.27;;;;;;;21.09;100.00;99937.58;1630137;86;21022;-75
2021/06/05 06:50:13;;;;;;;8.25;2.98;;;;;;;21.05;100.00;99933.63;1662681;86;21540;-75
2021/06/05 06:52:40;;;;;;;8.68;2.98;;;;;;;20.98;100.00;99942.55;1661748;86;21110;-75
2021/06/05 06:55:09;;;;;;;4.28;2.90;;;;;;;20.96;100.00;99935.91;1658053;86;21038;-75
2021/06/05 06:57:36;;;;;;;6.08;2.90;;;;;;;21.02;100.00;99928.09;1650414;86;21003;-75
2021/06/05 07:00:11;;;;;;;9.95;3.20;;;;;;;21.24;100.00;99933.75;1654666;86;21059;-75
2021/06/05 07:02:37;;;;;;;7.17;3.00;;;;;;;21.40;100.00;99923.88;1654719;87;21054;-75
2021/06/05 07:05:05;;;;;;;4.00;2.67;;;;;;;21.45;100.00;99927.28;1708326;84;21049;-75
2021/06/05 07:07:33;;;;;;;6.42;3.12;;;;;;;21.54;100.00;99931.88;1713704;84;21006;-75
2021/06/05 07:10:01;;;;;;;7.00;2.83;;;;;;;21.50;100.00;99934.30;1714024;84;21565;-74
2021/06/05 07:12:27;;;;;;;6.90;3.05;;;;;;;21.45;100.00;99930.03;1713880;84;20986;-74
2021/06/05 07:14:54;;;;;;;9.93;3.10;;;;;;;21.48;100.00;99927.35;1680082;85;21085;-75
2021/06/05 07:17:21;;;;;;;6.60;2.60;;;;;;;21.56;100.00;99926.41;1680290;85;21010;-76
2021/06/05 07:19:48;;;;;;;10.88;2.83;;;;;;;21.65;100.00;99924.66;1713474;84;21058;-76
2021/06/05 07:22:14;;;;;;;7.72;3.10;;;;;;;21.67;100.00;99923.86;1709115;84;21038;-75
2021/06/05 07:24:41;;;;;;;5.03;2.60;;;;;;;21.74;100.00;99922.64;1732482;83;20954;-74
2021/06/05 07:27:09;;;;;;;7.92;4.22;;;;;;;22.03;100.00;99923.10;1729040;83;21075;-75
2021/06/05 07:29:36;;;;;;;7.53;2.80;;;;;;;22.23;100.00;99917.11;1717285;83;21483;-74
2021/06/05 07:32:05;;;;;;;9.73;3.10;;;;;;;22.34;100.00;99921.17;1717783;83;20983;-76
2021/06/05 07:34:35;;;;;;;9.40;3.40;;;;;;;22.46;100.00;99919.70;1675953;83;21536;-76
2021/06/05 07:37:07;;;;;;;11.68;3.20;;;;;;;22.50;100.00;99913.14;1721219;83;21007;-75
2021/06/05 07:39:34;;;;;;;9.60;3.10;;;;;;;22.73;100.00;99916.22;1729274;83;21501;-76
2021/06/05 07:42:02;;;;;;;6.50;3.30;;;;;;;23.17;100.00;99919.59;1732214;83;21066;-73
2021/06/05 07:44:30;;;;;;;12.25;4.78;;;;;;;23.61;100.00;99914.00;1712766;82;21075;-72
2021/06/05 07:46:59;;;;;;;12.60;7.15;;;;;;;23.86;100.00;99910.68;1712878;83;21465;-76
2021/06/05 07:49:28;;;;;;;6.40;3.55;;;;;;;23.94;100.00;99903.84;1679220;83;21457;-77
2021/06/05 07:51:56;;;;;;;32.15;22.48;;;;;;;24.03;100.00;99900.90;1715334;83;22207;-74
2021/06/05 07:54:23;;;;;;;15.60;8.43;;;;;;;24.12;100.00;99902.07;1711977;83;20950;-76
2021/06/05 07:56:51;;;;;;;7.65;4.03;;;;;;;24.20;100.00;99901.56;1706273;83;21062;-75
2021/06/05 07:59:23;;;;;;;7.72;3.30;;;;;;;24.27;100.00;99895.81;1706458;84;21017;-75
2021/06/05 08:01:50;;;;;;;5.72;3.00;;;;;;;24.40;100.00;99889.84;1716479;83;20956;-75
2021/06/05 08:04:17;;;;;;;9.60;3.35;;;;;;;24.56;100.00;99896.33;1725860;83;20975;-77
2021/06/05 08:06:45;;;;;;;9.78;3.12;;;;;;;24.59;100.00;99893.00;1726493;83;20976;-77
2021/06/05 08:09:12;;;;;;;5.95;2.67;;;;;;;24.54;100.00;99891.63;1718081;82;21026;-76
2021/06/05 08:11:40;;;;;;;5.53;3.00;;;;;;;24.47;100.00;99894.28;1719454;83;21126;-73
2021/06/05 08:14:07;;;;;;;6.65;2.90;;;;;;;24.38;100.00;99883.75;1719007;83;21023;-73
2021/06/05 08:16:36;;;;;;;7.72;2.62;;;;;;;24.21;100.00;99885.84;1715155;83;21108;-75
2021/06/05 08:19:10;;;;;;;4.33;2.87;;;;;;;24.18;100.00;99879.45;1719446;83;21567;-73
2021/06/05 08:21:40;;;;;;;5.87;2.58;;;;;;;24.14;100.00;99876.39;1717815;83;21477;-73
2021/06/05 08:24:08;;;;;;;5.87;2.70;;;;;;;24.23;100.00;99872.03;1715997;83;20979;-71
2021/06/05 08:26:35;;;;;;;13.28;8.88;;;;;;;24.46;100.00;99868.59;1718058;82;21003;-73
2021/06/05 08:29:02;;;;;;;15.28;4.80;;;;;;;24.53;100.00;99876.12;1726879;82;21028;-74
2021/06/05 08:31:29;;;;;;;7.17;2.67;;;;;;;24.63;100.00;99863.75;1730137;82;20953;-74
2021/06/05 08:33:56;;;;;;;6.03;2.60;;;;;;;24.72;100.00;99867.36;1731328;82;21007;-74
2021/06/05 08:36:26;;;;;;;6.90;2.60;;;;;;;24.70;100.00;99866.80;1726462;83;21032;-74
2021/06/05 08:38:53;;;;;;;5.70;2.20;;;;;;;24.78;100.00;99862.98;1715672;84;21031;-73
2021/06/05 08:41:28;;;;;;;8.85;2.62;;;;;;;24.95;100.00;99864.17;1716622;84;20969;-74
2021/06/05 08:44:02;;;;;;;9.08;2.50;;;;;;;24.95;100.00;99868.31;1726011;82;21482;-72
2021/06/05 08:46:32;;;;;;;7.35;2.45;;;;;;;24.91;100.00;99862.20;1718180;82;20994;-73
2021/06/05 08:49:00;;;;;;;7.08;2.58;;;;;;;24.94;100.00;99859.73;1713997;84;20997;-73
2021/06/05 08:51:53;;;;;;;26.65;19.70;;;;;;;24.87;100.00;99860.53;1717461;82;21555;-75
2021/06/05 08:54:48;;;;;;;50.65;39.85;;;;;;;24.89;100.00;99855.55;1674923;85;21015;-72
2021/06/05 08:57:49;;;;;;;9.58;3.40;;;;;;;25.17;100.00;99850.11;1672819;85;21085;-73
2021/06/05 09:00:38;;;;;;;9.00;2.05;;;;;;;25.38;100.00;99851.59;1659395;86;21063;-72
2021/06/05 09:03:14;;;;;;;6.15;2.85;;;;;;;25.22;100.00;99848.48;1658907;86;21623;-74
2021/06/05 09:05:54;;;;;;;6.53;2.85;;;;;;;24.86;100.00;99849.20;1658596;86;21087;-72
2021/06/05 09:08:22;;;;;;;9.40;2.70;;;;;;;24.80;100.00;99857.18;1604152;89;21371;-74
2021/06/05 09:10:54;;;;;;;8.55;2.92;;;;;;;24.94;100.00;99843.13;1582324;91;21071;-72
2021/06/05 09:13:21;;;;;;;7.28;2.62;;;;;;;25.43;100.00;99842.45;1603824;89;21552;-73
2021/06/05 09:15:52;;;;;;;6.65;2.87;;;;;;;25.90;100.00;99836.66;1581645;91;21608;-73
2021/06/05 09:18:20;;;;;;;3.92;2.55;;;;;;;26.23;100.00;99839.16;1562462;91;21643;-73
2021/06/05 09:21:04;;;;;;;6.72;2.30;;;;;;;26.55;100.00;99839.36;1542427;91;21035;-73
2021/06/05 09:23:37;;;;;;;5.97;3.00;;;;;;;26.55;100.00;99829.09;1582146;90;21109;-72
2021/06/05 09:26:26;;;;;;;;;;;;;;;26.49;100.00;99839.38;1583992;91;21668;-75
2021/06/05 09:29:18;;;;;;;7.08;3.30;;;;;;;26.32;100.00;99831.36;1551387;92;20143;-70
2021/06/05 09:32:12;;;;;;;5.50;3.10;;;;;;;25.91;100.00;99828.63;1512669;92;21106;-71
2021/06/05 09:34:42;;;;;;;9.45;3.62;;;;;;;25.48;100.00;99830.00;1532644;94;21196;-72
2021/06/05 09:37:41;;;;;;;9.73;3.27;;;;;;;25.07;100.00;99836.81;1520918;94;21135;-70
2021/06/05 09:40:23;;;;;;;11.90;3.40;;;;;;;24.88;100.00;99834.55;1522511;94;21070;-69
2021/06/05 09:42:57;;;;;;;6.63;3.10;;;;;;;24.16;100.00;99834.70;1519861;94;21556;-71
2021/06/05 09:45:32;;;;;;;11.90;3.27;;;;;;;24.16;100.00;99834.70;1520351;94;21039;-70
2021/06/05 09:48:23;;;;;;;10.58;3.92;;;;;;;23.82;100.00;99834.45;1523984;94;21083;-69
2021/06/05 09:50:52;;;;;;;10.40;3.37;;;;;;;23.70;100.00;99835.15;1526453;94;21646;-71
2021/06/05 09:53:28;;;;;;;7.95;2.92;;;;;;;23.78;100.00;99836.05;1532149;94;21128;-73
2021/06/05 09:55:56;;;;;;;8.78;3.20;;;;;;;23.93;100.00;99824.88;1532481;94;21134;-73
2021/06/05 09:58:44;;;;;;;15.72;4.17;;;;;;;24.26;100.00;99820.41;1489232;95;21593;-71
2021/06/05 10:01:22;;;;;;;8.15;4.00;;;;;;;24.57;100.00;99824.73;1550321;88;21040;-72
2021/06/05 10:04:17;;;;;;;11.12;3.40;;;;;;;24.87;100.00;99829.28;1565398;89;21085;-72
2021/06/05 10:06:54;;;;;;;9.85;3.33;;;;;;;25.11;100.00;99826.88;1590543;89;21049;-73
2021/06/05 10:09:30;;;;;;;7.60;3.65;;;;;;;24.93;100.00;99830.42;1601177;87;21063;-73
2021/06/05 10:12:23;;;;;;;12.03;4.47;;;;;;;24.89;100.00;99822.37;1592302;90;21587;-73
2021/06/05 10:15:11;;;;;;;12.50;5.08;;;;;;;24.98;100.00;99819.91;1549915;93;21065;-71
2021/06/05 10:17:56;;;;;;;10.30;4.22;;;;;;;25.29;100.00;99827.77;1586695;90;21532;-71
2021/06/05 10:20:48;;;;;;;10.50;4.12;;;;;;;25.48;100.00;99816.16;1589399;90;21640;-73
2021/06/05 10:23:25;;;;;;;8.20;4.03;;;;;;;25.53;100.00;99814.25;1589382;86;21633;-72
2021/06/05 10:26:00;;;;;;;9.00;3.20;;;;;;;25.88;100.00;99809.80;1589035;90;21074;-72
2021/06/05 10:28:32;;;;;;;10.98;3.12;;;;;;;26.13;100.00;99802.06;1595649;88;21128;-72
2021/06/05 10:31:06;;;;;;;7.47;3.10;;;;;;;25.81;100.00;99812.58;1528034;94;21171;-72
2021/06/05 10:33:55;;;;;;;4.75;2.87;;;;;;;25.41;100.00;99806.77;1528445;94;21101;-72
2021/06/05 10:36:31;;;;;;;7.00;3.10;;;;;;;24.87;100.00;99801.08;1531605;92;21115;-72
2021/06/05 10:39:11;;;;;;;8.80;3.05;;;;;;;24.51;100.00;99807.83;1516947;95;21096;-72
2021/06/05 10:41:42;;;;;;;7.08;2.70;;;;;;;24.29;100.00;99805.77;1517261;95;21053;-72
2021/06/05 10:44:11;;;;;;;5.80;3.12;;;;;;;24.04;100.00;99805.89;1517232;95;21145;-73
2021/06/05 10:47:11;;;;;;;8.08;3.10;;;;;;;23.87;100.00;99798.61;1517421;95;21140;-72
2021/06/05 10:50:05;;;;;;;8.75;3.47;;;;;;;23.92;100.00;99807.48;1517009;95;21108;-73
2021/06/05 10:52:58;;;;;;;9.05;3.52;;;;;;;23.78;100.00;99807.59;1490840;96;21113;-73
2021/06/05 10:55:31;;;;;;;;;;;;;;;23.52;100.00;99804.64;1468527;98;21174;-73
2021/06/05 10:58:27;;;;;;;8.68;2.87;;;;;;;23.11;100.00;99808.39;1475613;97;20140;-72
2021/06/05 11:01:05;;;;;;;8.68;2.85;;;;;;;22.73;100.00;99813.73;1478291;97;21071;-72
2021/06/05 11:03:40;;;;;;;7.78;2.70;;;;;;;22.36;100.00;99812.98;1512997;95;21119;-73
2021/06/05 11:06:15;;;;;;;5.00;2.80;;;;;;;22.18;100.00;99818.72;1512997;95;21058;-71
2021/06/05 11:08:51;;;;;;;6.10;3.35;;;;;;;22.06;100.00;99813.34;1512026;95;21125;-72
2021/06/05 11:11:43;;;;;;;9.60;3.60;;;;;;;21.95;100.00;99812.88;1511720;95;21595;-72
2021/06/05 11:14:39;;;;;;;13.43;4.28;;;;;;;21.85;100.00;99811.34;1444580;99;21105;-73
2021/06/05 11:17:30;;;;;;;10.63;4.28;;;;;;;21.71;100.00;99806.19;1431583;99;21099;-70
2021/06/05 11:20:20;;;;;;;11.45;4.17;;;;;;;21.62;100.00;99804.95;1425134;101;21118;-73
2021/06/05 11:22:59;;;;;;;8.95;4.00;;;;;;;21.61;100.00;99810.97;1425142;101;21141;-73
2021/06/05 11:25:44;;;;;;;6.65;3.58;;;;;;;21.73;100.00;99806.77;1387608;103;21318;-71
2021/06/05 11:28:35;;;;;;;8.40;3.77;;;;;;;21.96;100.00;99808.50;1370959;104;21185;-72
2021/06/05 11:31:05;;;;;;;4.90;3.12;;;;;;;22.29;100.00;99809.58;1388025;103;21652;-71
2021/06/05 11:33:45;;;;;;;7.10;2.72;;;;;;;22.62;100.00;99801.45;1387371;102;21165;-72
2021/06/05 11:36:42;;;;;;;6.08;2.40;;;;;;;22.96;100.00;99806.25;1437345;99;21713;-70
2021/06/05 11:39:25;;;;;;;4.75;2.58;;;;;;;23.32;100.00;99792.88;1409924;102;21098;-71
2021/06/05 11:41:55;;;;;;;9.90;2.80;;;;;;;23.69;100.00;99800.34;1396491;103;21202;-71